createdAt,value
2018-07-25T00:00:21.030Z,0.00
2018-07-25T00:01:20.960Z,0.00
2018-07-25T00:02:20.906Z,0.00
2018-07-25T00:03:20.826Z,0.00
2018-07-25T00:04:20.757Z,0.00
2018-07-25T00:05:20.689Z,0.00
2018-07-25T00:06:20.618Z,0.00
2018-07-25T00:07:20.552Z,0.00
2018-07-25T00:08:20.485Z,0.00
2018-07-25T00:09:20.417Z,0.00
2018-07-25T00:10:20.352Z,0.00
2018-07-25T00:11:20.280Z,0.00
2018-07-25T00:12:20.215Z,0.00
2018-07-25T00:13:20.150Z,0.00
2018-07-25T00:14:20.080Z,0.00
2018-07-25T00:15:20.016Z,0.00
2018-07-25T00:16:19.943Z,0.00
2018-07-25T00:17:19.873Z,0.00
2018-07-25T00:18:19.805Z,0.00
2018-07-25T00:19:19.743Z,0.00
2018-07-25T00:20:19.672Z,0.00
2018-07-25T00:21:19.604Z,0.00
2018-07-25T00:22:19.535Z,0.00
2018-07-25T00:23:19.463Z,0.00
2018-07-25T00:24:19.395Z,0.00
2018-07-25T00:25:19.332Z,0.00
2018-07-25T00:26:19.261Z,0.00
2018-07-25T00:27:19.197Z,0.00
2018-07-25T00:28:19.123Z,0.00
2018-07-25T00:29:19.059Z,0.00
2018-07-25T00:30:18.988Z,0.00
2018-07-25T00:31:18.920Z,0.00
2018-07-25T00:32:18.852Z,0.00
2018-07-25T00:33:18.785Z,0.00
2018-07-25T00:34:18.708Z,0.00
2018-07-25T00:35:18.645Z,0.00
2018-07-25T00:36:18.584Z,0.00
2018-07-25T00:37:18.514Z,0.00
2018-07-25T00:38:18.441Z,0.00
2018-07-25T00:39:18.375Z,0.00
2018-07-25T00:40:18.307Z,0.00
2018-07-25T00:41:18.238Z,0.00
2018-07-25T00:42:18.182Z,0.00
2018-07-25T00:43:18.098Z,0.00
2018-07-25T00:44:18.036Z,0.00
2018-07-25T00:45:17.963Z,0.00
2018-07-25T00:46:17.897Z,0.00
2018-07-25T00:47:17.819Z,0.00
2018-07-25T00:48:17.761Z,0.00
2018-07-25T00:49:17.691Z,0.00
2018-07-25T00:50:17.619Z,0.00
2018-07-25T00:51:17.554Z,0.00
2018-07-25T00:52:17.484Z,0.00
2018-07-25T00:53:17.412Z,0.00
2018-07-25T00:54:17.351Z,0.00
2018-07-25T00:55:17.282Z,0.00
2018-07-25T00:56:17.213Z,0.00
2018-07-25T00:57:17.142Z,0.00
2018-07-25T00:58:17.110Z,0.00
2018-07-25T00:59:17.013Z,0.00
2018-07-25T01:00:16.938Z,0.00
2018-07-25T01:01:16.864Z,0.00
2018-07-25T01:02:16.802Z,0.00
2018-07-25T01:03:16.735Z,0.00
2018-07-25T01:04:16.664Z,0.00
2018-07-25T01:05:16.595Z,0.00
2018-07-25T01:06:16.523Z,0.00
2018-07-25T01:07:16.473Z,0.00
2018-07-25T01:08:16.385Z,0.00
2018-07-25T01:09:16.318Z,0.00
2018-07-25T01:10:16.248Z,0.00
2018-07-25T01:11:16.178Z,0.00
2018-07-25T01:12:16.114Z,0.00
2018-07-25T01:13:16.039Z,0.00
2018-07-25T01:14:15.970Z,0.00
2018-07-25T01:15:15.902Z,0.00
2018-07-25T01:16:15.838Z,0.00
2018-07-25T01:17:15.768Z,0.00
2018-07-25T01:18:15.699Z,0.00
2018-07-25T01:19:15.630Z,0.00
2018-07-25T01:20:15.559Z,0.00
2018-07-25T01:21:15.491Z,0.00
2018-07-25T01:22:15.424Z,0.00
2018-07-25T01:23:15.355Z,0.00
2018-07-25T01:24:15.290Z,0.00
2018-07-25T01:25:15.214Z,0.00
2018-07-25T01:26:15.151Z,0.00
2018-07-25T01:27:15.079Z,0.00
2018-07-25T01:28:15.013Z,0.00
2018-07-25T01:29:14.942Z,0.00
2018-07-25T01:30:14.874Z,0.00
2018-07-25T01:31:14.803Z,0.00
2018-07-25T01:32:14.735Z,0.00
2018-07-25T01:33:14.665Z,0.00
2018-07-25T01:34:14.595Z,0.00
2018-07-25T01:35:14.527Z,0.00
2018-07-25T01:36:14.470Z,0.00
2018-07-25T01:37:14.389Z,0.00
2018-07-25T01:38:14.322Z,0.00
2018-07-25T01:39:14.253Z,0.00
2018-07-25T01:40:14.180Z,0.00
2018-07-25T01:41:14.111Z,0.00
2018-07-25T01:42:14.045Z,0.00
2018-07-25T01:43:13.978Z,0.00
2018-07-25T01:44:13.910Z,0.00
2018-07-25T01:45:13.839Z,0.00
2018-07-25T01:46:13.769Z,0.00
2018-07-25T01:47:13.698Z,0.00
2018-07-25T01:48:13.633Z,0.00
2018-07-25T01:49:13.561Z,0.00
2018-07-25T01:50:13.494Z,0.00
2018-07-25T01:51:13.431Z,0.00
2018-07-25T01:52:13.361Z,0.00
2018-07-25T01:53:13.284Z,0.00
2018-07-25T01:54:13.215Z,0.00
2018-07-25T01:55:13.153Z,0.00
2018-07-25T01:56:13.076Z,0.00
2018-07-25T01:57:13.008Z,0.00
2018-07-25T01:58:12.943Z,0.00
2018-07-25T01:59:12.872Z,0.00
2018-07-25T02:00:12.802Z,0.00
2018-07-25T02:01:12.731Z,0.00
2018-07-25T02:02:12.666Z,0.00
2018-07-25T02:03:12.596Z,0.00
2018-07-25T02:04:12.528Z,0.00
2018-07-25T02:05:12.461Z,0.00
2018-07-25T02:06:12.388Z,0.00
2018-07-25T02:07:12.320Z,0.00
2018-07-25T02:08:12.288Z,0.00
2018-07-25T02:09:12.193Z,0.00
2018-07-25T02:10:12.110Z,0.00
2018-07-25T02:11:12.045Z,0.00
2018-07-25T02:12:11.977Z,0.00
2018-07-25T02:13:11.904Z,0.00
2018-07-25T02:14:11.834Z,0.00
2018-07-25T02:15:11.766Z,0.00
2018-07-25T02:16:11.698Z,0.00
2018-07-25T02:17:11.627Z,0.00
2018-07-25T02:18:11.554Z,0.00
2018-07-25T02:19:11.490Z,0.00
2018-07-25T02:20:11.419Z,0.00
2018-07-25T02:21:11.355Z,0.00
2018-07-25T02:22:11.281Z,0.00
2018-07-25T02:23:11.211Z,0.00
2018-07-25T02:24:11.145Z,0.00
2018-07-25T02:25:11.074Z,0.00
2018-07-25T02:26:11.010Z,0.00
2018-07-25T02:27:10.936Z,0.00
2018-07-25T02:28:10.868Z,0.00
2018-07-25T02:29:10.799Z,0.00
2018-07-25T02:30:10.729Z,0.00
2018-07-25T02:31:10.657Z,0.00
2018-07-25T02:32:10.590Z,0.00
2018-07-25T02:33:10.522Z,0.00
2018-07-25T02:34:10.459Z,0.00
2018-07-25T02:35:10.377Z,0.00
2018-07-25T02:36:10.317Z,0.00
2018-07-25T02:37:10.242Z,0.00
2018-07-25T02:38:10.175Z,0.00
2018-07-25T02:39:10.103Z,0.00
2018-07-25T02:40:10.038Z,0.00
2018-07-25T02:41:09.965Z,0.00
2018-07-25T02:42:09.903Z,0.00
2018-07-25T02:43:09.832Z,0.00
2018-07-25T02:44:09.764Z,0.00
2018-07-25T02:45:09.689Z,0.00
2018-07-25T02:46:09.621Z,0.00
2018-07-25T02:47:09.549Z,0.00
2018-07-25T02:48:09.487Z,0.00
2018-07-25T02:49:09.410Z,0.00
2018-07-25T02:50:09.345Z,0.00
2018-07-25T02:51:09.270Z,0.00
2018-07-25T02:52:09.214Z,0.00
2018-07-25T02:53:09.134Z,0.00
2018-07-25T02:54:09.074Z,0.00
2018-07-25T02:55:08.997Z,0.00
2018-07-25T02:56:08.928Z,0.00
2018-07-25T02:57:08.858Z,0.00
2018-07-25T02:58:08.789Z,0.00
2018-07-25T02:59:08.715Z,0.00
2018-07-25T03:00:08.649Z,0.00
2018-07-25T03:01:08.578Z,0.00
2018-07-25T03:02:08.504Z,0.00
2018-07-25T03:03:08.451Z,0.00
2018-07-25T03:04:08.372Z,0.00
2018-07-25T03:05:08.313Z,0.00
2018-07-25T03:06:08.230Z,0.00
2018-07-25T03:07:08.218Z,0.00
2018-07-25T03:08:08.152Z,0.00
2018-07-25T03:09:08.118Z,0.00
2018-07-25T03:10:07.960Z,0.00
2018-07-25T03:11:07.888Z,0.00
2018-07-25T03:12:07.811Z,0.00
2018-07-25T03:13:07.746Z,0.00
2018-07-25T03:14:07.670Z,0.00
2018-07-25T03:15:07.613Z,0.00
2018-07-25T03:16:07.536Z,0.00
2018-07-25T03:17:07.464Z,0.00
2018-07-25T03:18:07.387Z,0.00
2018-07-25T03:19:07.337Z,0.00
2018-07-25T03:20:07.254Z,0.00
2018-07-25T03:21:07.186Z,0.00
2018-07-25T03:22:07.113Z,0.00
2018-07-25T03:23:07.045Z,0.00
2018-07-25T03:24:06.983Z,0.00
2018-07-25T03:25:06.911Z,0.00
2018-07-25T03:26:06.833Z,0.00
2018-07-25T03:27:06.772Z,0.00
2018-07-25T03:28:06.705Z,0.00
2018-07-25T03:29:06.642Z,0.00
2018-07-25T03:30:06.564Z,0.00
2018-07-25T03:31:07.255Z,0.00
2018-07-25T03:32:06.423Z,0.00
2018-07-25T03:33:06.351Z,0.00
2018-07-25T03:34:06.274Z,0.00
2018-07-25T03:35:06.216Z,0.00
2018-07-25T03:36:06.136Z,0.00
2018-07-25T03:37:06.071Z,0.00
2018-07-25T03:38:05.999Z,0.00
2018-07-25T03:39:05.932Z,0.00
2018-07-25T03:40:05.864Z,0.00
2018-07-25T03:41:05.785Z,0.00
2018-07-25T03:42:05.717Z,0.00
2018-07-25T03:43:05.660Z,0.00
2018-07-25T03:44:05.596Z,0.00
2018-07-25T03:45:05.521Z,0.00
2018-07-25T03:46:05.439Z,0.00
2018-07-25T03:47:05.374Z,0.00
2018-07-25T03:48:05.303Z,0.00
2018-07-25T03:49:05.234Z,0.00
2018-07-25T03:50:05.208Z,5.63
2018-07-25T03:51:05.096Z,5.63
2018-07-25T03:52:05.026Z,5.63
2018-07-25T03:53:04.957Z,5.63
2018-07-25T03:54:04.884Z,5.63
2018-07-25T03:55:04.818Z,5.63
2018-07-25T03:56:04.747Z,5.63
2018-07-25T03:57:04.676Z,5.63
2018-07-25T03:58:04.604Z,5.63
2018-07-25T03:59:04.538Z,5.63
2018-07-25T04:00:04.467Z,5.63
2018-07-25T04:01:04.402Z,5.63
2018-07-25T04:02:04.356Z,11.25
2018-07-25T04:03:04.259Z,11.25
2018-07-25T04:04:04.187Z,11.25
2018-07-25T04:05:04.125Z,11.25
2018-07-25T04:06:04.050Z,11.25
2018-07-25T04:07:03.980Z,11.25
2018-07-25T04:08:03.909Z,11.25
2018-07-25T04:09:03.868Z,11.25
2018-07-25T04:10:03.773Z,11.25
2018-07-25T04:11:03.694Z,11.25
2018-07-25T04:12:03.625Z,11.25
2018-07-25T04:13:03.558Z,16.88
2018-07-25T04:14:03.494Z,16.88
2018-07-25T04:15:03.420Z,16.88
2018-07-25T04:16:03.351Z,16.88
2018-07-25T04:17:03.281Z,16.88
2018-07-25T04:18:03.210Z,16.88
2018-07-25T04:19:03.145Z,16.88
2018-07-25T04:20:03.076Z,16.88
2018-07-25T04:21:03.001Z,16.88
2018-07-25T04:22:02.945Z,22.50
2018-07-25T04:23:02.865Z,22.50
2018-07-25T04:24:02.795Z,22.50
2018-07-25T04:25:02.723Z,22.50
2018-07-25T04:26:02.649Z,22.50
2018-07-25T04:27:02.584Z,22.50
2018-07-25T04:28:02.512Z,22.50
2018-07-25T04:29:02.441Z,22.50
2018-07-25T04:30:02.384Z,22.50
2018-07-25T04:31:02.304Z,28.13
2018-07-25T04:32:02.232Z,28.13
2018-07-25T04:33:02.173Z,28.13
2018-07-25T04:34:02.088Z,28.13
2018-07-25T04:35:02.021Z,28.13
2018-07-25T04:36:01.952Z,28.13
2018-07-25T04:37:01.886Z,28.13
2018-07-25T04:38:01.809Z,28.13
2018-07-25T04:39:01.742Z,33.75
2018-07-25T04:40:01.677Z,33.75
2018-07-25T04:41:01.606Z,33.75
2018-07-25T04:42:01.533Z,33.75
2018-07-25T04:43:01.465Z,33.75
2018-07-25T04:44:01.393Z,33.75
2018-07-25T04:45:01.322Z,33.75
2018-07-25T04:46:01.354Z,33.75
2018-07-25T04:47:01.180Z,33.75
2018-07-25T04:48:01.115Z,33.75
2018-07-25T04:49:01.051Z,33.75
2018-07-25T04:50:00.977Z,33.75
2018-07-25T04:51:00.902Z,33.75
2018-07-25T04:52:00.835Z,33.75
2018-07-25T04:53:00.778Z,39.38
2018-07-25T04:54:00.691Z,39.38
2018-07-25T04:55:00.621Z,39.38
2018-07-25T04:56:00.574Z,39.38
2018-07-25T04:57:00.485Z,39.38
2018-07-25T04:58:00.409Z,39.38
2018-07-25T04:59:00.342Z,39.38
2018-07-25T05:00:00.321Z,45.00
2018-07-25T05:01:00.205Z,45.00
2018-07-25T05:02:00.141Z,45.00
2018-07-25T05:03:00.065Z,45.00
2018-07-25T05:03:59.998Z,50.63
2018-07-25T05:04:59.920Z,50.63
2018-07-25T05:05:59.853Z,50.63
2018-07-25T05:06:59.846Z,50.63
2018-07-25T05:07:59.713Z,56.25
2018-07-25T05:08:59.642Z,56.25
2018-07-25T05:09:59.581Z,56.25
2018-07-25T05:10:59.503Z,56.25
2018-07-25T05:11:59.436Z,56.25
2018-07-25T05:12:59.373Z,56.25
2018-07-25T05:13:59.293Z,61.88
2018-07-25T05:14:59.228Z,61.88
2018-07-25T05:15:59.156Z,61.88
2018-07-25T05:16:59.090Z,61.88
2018-07-25T05:17:59.065Z,61.88
2018-07-25T05:18:58.958Z,61.88
2018-07-25T05:19:58.877Z,61.88
2018-07-25T05:20:58.810Z,61.88
2018-07-25T05:21:58.741Z,61.88
2018-07-25T05:22:58.667Z,61.88
2018-07-25T05:23:58.600Z,61.88
2018-07-25T05:24:58.532Z,56.25
2018-07-25T05:25:58.465Z,50.63
2018-07-25T05:26:58.394Z,50.63
2018-07-25T05:27:58.321Z,50.63
2018-07-25T05:28:58.258Z,50.63
2018-07-25T05:29:58.178Z,56.25
2018-07-25T05:30:58.116Z,56.25
2018-07-25T05:31:58.044Z,61.88
2018-07-25T05:32:57.970Z,73.13
2018-07-25T05:33:57.906Z,73.13
2018-07-25T05:34:57.829Z,73.13
2018-07-25T05:35:57.761Z,73.13
2018-07-25T05:36:57.692Z,73.13
2018-07-25T05:37:57.627Z,73.13
2018-07-25T05:38:57.552Z,78.75
2018-07-25T05:39:57.491Z,78.75
2018-07-25T05:40:57.417Z,78.75
2018-07-25T05:41:57.346Z,78.75
2018-07-25T05:42:57.289Z,78.75
2018-07-25T05:43:57.219Z,78.75
2018-07-25T05:44:57.140Z,78.75
2018-07-25T05:45:57.068Z,78.75
2018-07-25T05:46:57.003Z,78.75
2018-07-25T05:47:56.928Z,84.38
2018-07-25T05:48:56.874Z,73.13
2018-07-25T05:49:56.801Z,67.50
2018-07-25T05:50:56.722Z,78.75
2018-07-25T05:51:56.668Z,78.75
2018-07-25T05:52:56.584Z,78.75
2018-07-25T05:53:56.534Z,67.50
2018-07-25T05:54:56.444Z,73.13
2018-07-25T05:55:56.379Z,78.75
2018-07-25T05:56:56.306Z,78.75
2018-07-25T05:57:56.237Z,78.75
2018-07-25T05:58:56.167Z,78.75
2018-07-25T05:59:56.097Z,78.75
2018-07-25T06:00:56.028Z,84.38
2018-07-25T06:01:55.964Z,84.38
2018-07-25T06:02:55.925Z,84.38
2018-07-25T06:03:55.828Z,84.38
2018-07-25T06:04:55.756Z,84.38
2018-07-25T06:05:55.709Z,84.38
2018-07-25T06:06:55.624Z,84.38
2018-07-25T06:07:55.546Z,84.38
2018-07-25T06:08:55.477Z,84.38
2018-07-25T06:09:55.411Z,84.38
2018-07-25T06:10:55.338Z,84.38
2018-07-25T06:11:55.272Z,84.38
2018-07-25T06:12:55.229Z,84.38
2018-07-25T06:13:55.134Z,90.00
2018-07-25T06:14:55.065Z,90.00
2018-07-25T06:15:54.993Z,90.00
2018-07-25T06:16:54.933Z,90.00
2018-07-25T06:17:54.861Z,90.00
2018-07-25T06:18:54.789Z,90.00
2018-07-25T06:19:54.721Z,90.00
2018-07-25T06:20:54.653Z,90.00
2018-07-25T06:21:54.588Z,90.00
2018-07-25T06:22:54.518Z,95.63
2018-07-25T06:23:54.446Z,95.63
2018-07-25T06:24:54.395Z,95.63
2018-07-25T06:25:54.332Z,95.63
2018-07-25T06:26:54.250Z,95.63
2018-07-25T06:27:54.174Z,95.63
2018-07-25T06:28:54.127Z,95.63
2018-07-25T06:29:54.039Z,84.38
2018-07-25T06:30:53.965Z,95.63
2018-07-25T06:31:53.901Z,101.25
2018-07-25T06:32:53.832Z,101.25
2018-07-25T06:33:53.762Z,101.25
2018-07-25T06:34:53.741Z,101.25
2018-07-25T06:35:53.626Z,101.25
2018-07-25T06:36:53.559Z,101.25
2018-07-25T06:37:53.520Z,101.25
2018-07-25T06:38:53.420Z,101.25
2018-07-25T06:39:53.363Z,101.25
2018-07-25T06:40:53.287Z,101.25
2018-07-25T06:41:53.232Z,101.25
2018-07-25T06:42:53.152Z,101.25
2018-07-25T06:43:53.084Z,101.25
2018-07-25T06:44:53.014Z,101.25
2018-07-25T06:45:52.961Z,101.25
2018-07-25T06:46:52.880Z,101.25
2018-07-25T06:47:52.808Z,106.88
2018-07-25T06:48:52.740Z,101.25
2018-07-25T06:49:52.678Z,106.88
2018-07-25T06:50:52.618Z,112.50
2018-07-25T06:51:52.537Z,106.88
2018-07-25T06:52:52.470Z,106.88
2018-07-25T06:53:52.401Z,106.88
2018-07-25T06:54:52.334Z,106.88
2018-07-25T06:55:52.290Z,112.50
2018-07-25T06:56:52.194Z,112.50
2018-07-25T06:57:52.135Z,112.50
2018-07-25T06:58:52.064Z,112.50
2018-07-25T06:59:51.996Z,112.50
2018-07-25T07:00:51.928Z,112.50
2018-07-25T07:01:51.872Z,112.50
2018-07-25T07:02:51.798Z,112.50
2018-07-25T07:03:51.726Z,112.50
2018-07-25T07:04:51.665Z,112.50
2018-07-25T07:05:51.588Z,118.13
2018-07-25T07:06:51.570Z,118.13
2018-07-25T07:07:51.455Z,123.75
2018-07-25T07:08:51.383Z,118.13
2018-07-25T07:09:51.330Z,118.13
2018-07-25T07:10:51.256Z,118.13
2018-07-25T07:11:51.187Z,118.13
2018-07-25T07:12:51.123Z,118.13
2018-07-25T07:13:51.059Z,118.13
2018-07-25T07:14:50.984Z,118.13
2018-07-25T07:15:50.931Z,118.13
2018-07-25T07:16:50.849Z,118.13
2018-07-25T07:17:50.782Z,118.13
2018-07-25T07:18:50.714Z,118.13
2018-07-25T07:19:50.651Z,118.13
2018-07-25T07:20:50.583Z,118.13
2018-07-25T07:21:50.513Z,118.13
2018-07-25T07:22:50.450Z,118.13
2018-07-25T07:23:50.382Z,118.13
2018-07-25T07:24:50.312Z,118.13
2018-07-25T07:25:50.276Z,123.75
2018-07-25T07:26:50.176Z,123.75
2018-07-25T07:27:50.119Z,123.75
2018-07-25T07:28:50.043Z,123.75
2018-07-25T07:29:49.981Z,123.75
2018-07-25T07:30:49.908Z,123.75
2018-07-25T07:31:49.846Z,123.75
2018-07-25T07:32:49.798Z,123.75
2018-07-25T07:33:49.707Z,123.75
2018-07-25T07:34:49.646Z,123.75
2018-07-25T07:35:49.574Z,123.75
2018-07-25T07:36:49.504Z,123.75
2018-07-25T07:37:49.551Z,123.75
2018-07-25T07:38:49.377Z,123.75
2018-07-25T07:39:49.314Z,123.75
2018-07-25T07:40:49.242Z,123.75
2018-07-25T07:41:49.186Z,129.38
2018-07-25T07:42:49.138Z,129.38
2018-07-25T07:43:49.043Z,129.38
2018-07-25T07:44:48.986Z,129.38
2018-07-25T07:45:48.907Z,129.38
2018-07-25T07:46:48.843Z,135.00
2018-07-25T07:47:48.775Z,135.00
2018-07-25T07:48:48.705Z,135.00
2018-07-25T07:49:48.641Z,135.00
2018-07-25T07:50:48.590Z,135.00
2018-07-25T07:51:48.592Z,135.00
2018-07-25T07:52:48.448Z,140.63
2018-07-25T07:53:48.374Z,140.63
2018-07-25T07:54:48.329Z,140.63
2018-07-25T07:55:48.247Z,140.63
2018-07-25T07:56:48.186Z,146.25
2018-07-25T07:57:48.111Z,140.63
2018-07-25T07:58:48.054Z,146.25
2018-07-25T07:59:47.983Z,146.25
2018-07-25T08:00:47.910Z,146.25
2018-07-25T08:01:47.845Z,146.25
2018-07-25T08:02:47.781Z,146.25
2018-07-25T08:03:47.713Z,146.25
2018-07-25T08:04:47.659Z,151.88
2018-07-25T08:05:47.581Z,151.88
2018-07-25T08:06:47.520Z,151.88
2018-07-25T08:07:47.451Z,151.88
2018-07-25T08:08:47.378Z,151.88
2018-07-25T08:09:47.321Z,151.88
2018-07-25T08:10:47.358Z,157.50
2018-07-25T08:11:47.179Z,157.50
2018-07-25T08:12:47.152Z,157.50
2018-07-25T08:13:47.057Z,157.50
2018-07-25T08:14:46.981Z,157.50
2018-07-25T08:15:46.918Z,157.50
2018-07-25T08:16:46.860Z,157.50
2018-07-25T08:17:46.829Z,163.13
2018-07-25T08:18:46.725Z,163.13
2018-07-25T08:19:46.686Z,163.13
2018-07-25T08:20:46.598Z,163.13
2018-07-25T08:21:46.526Z,163.13
2018-07-25T08:22:46.475Z,168.75
2018-07-25T08:23:46.396Z,168.75
2018-07-25T08:24:46.331Z,168.75
2018-07-25T08:25:46.284Z,168.75
2018-07-25T08:26:46.205Z,174.38
2018-07-25T08:27:46.131Z,174.38
2018-07-25T08:28:46.078Z,174.38
2018-07-25T08:29:46.011Z,174.38
2018-07-25T08:30:45.936Z,174.38
2018-07-25T08:31:45.877Z,180.00
2018-07-25T08:32:45.810Z,180.00
2018-07-25T08:33:45.758Z,185.63
2018-07-25T08:34:45.685Z,185.63
2018-07-25T08:35:45.611Z,185.63
2018-07-25T08:36:45.548Z,185.63
2018-07-25T08:37:45.481Z,185.63
2018-07-25T08:38:45.420Z,191.25
2018-07-25T08:39:45.353Z,196.88
2018-07-25T08:40:45.294Z,196.88
2018-07-25T08:41:45.261Z,196.88
2018-07-25T08:42:45.158Z,196.88
2018-07-25T08:43:45.093Z,196.88
2018-07-25T08:44:45.028Z,196.88
2018-07-25T08:45:44.964Z,196.88
2018-07-25T08:46:44.928Z,196.88
2018-07-25T08:47:44.824Z,191.25
2018-07-25T08:48:44.763Z,196.88
2018-07-25T08:49:44.707Z,196.88
2018-07-25T08:50:44.636Z,196.88
2018-07-25T08:51:44.571Z,202.50
2018-07-25T08:52:44.616Z,202.50
2018-07-25T08:53:44.444Z,213.75
2018-07-25T08:54:44.381Z,219.38
2018-07-25T08:55:44.315Z,236.25
2018-07-25T08:56:44.253Z,253.13
2018-07-25T08:57:44.249Z,253.13
2018-07-25T08:58:44.120Z,213.75
2018-07-25T08:59:44.066Z,202.50
2018-07-25T09:00:43.991Z,202.50
2018-07-25T09:01:43.955Z,202.50
2018-07-25T09:02:43.865Z,219.38
2018-07-25T09:03:43.804Z,230.63
2018-07-25T09:04:43.733Z,241.88
2018-07-25T09:05:43.670Z,298.13
2018-07-25T09:06:43.612Z,382.50
2018-07-25T09:07:43.549Z,444.38
2018-07-25T09:08:43.479Z,444.38
2018-07-25T09:09:43.483Z,326.25
2018-07-25T09:10:43.358Z,331.88
2018-07-25T09:11:43.288Z,270.00
2018-07-25T09:12:43.260Z,230.63
2018-07-25T09:13:43.170Z,219.38
2018-07-25T09:14:43.106Z,241.88
2018-07-25T09:15:43.042Z,241.88
2018-07-25T09:16:42.984Z,241.88
2018-07-25T09:17:42.917Z,225.00
2018-07-25T09:18:42.860Z,225.00
2018-07-25T09:19:42.836Z,303.75
2018-07-25T09:20:42.726Z,427.50
2018-07-25T09:21:42.669Z,523.13
2018-07-25T09:22:42.605Z,534.38
2018-07-25T09:23:42.536Z,540.00
2018-07-25T09:24:42.474Z,545.63
2018-07-25T09:25:42.427Z,534.38
2018-07-25T09:26:42.368Z,483.75
2018-07-25T09:27:42.294Z,393.75
2018-07-25T09:28:42.250Z,427.50
2018-07-25T09:29:42.177Z,511.88
2018-07-25T09:30:42.115Z,545.63
2018-07-25T09:31:42.058Z,568.13
2018-07-25T09:32:42.002Z,579.38
2018-07-25T09:33:41.993Z,579.38
2018-07-25T09:34:41.879Z,590.63
2018-07-25T09:35:41.818Z,585.00
2018-07-25T09:36:41.784Z,590.63
2018-07-25T09:37:41.712Z,590.63
2018-07-25T09:38:41.648Z,596.25
2018-07-25T09:39:41.590Z,601.88
2018-07-25T09:40:41.558Z,601.88
2018-07-25T09:41:41.472Z,613.13
2018-07-25T09:42:41.427Z,618.75
2018-07-25T09:43:41.369Z,624.38
2018-07-25T09:44:41.306Z,630.00
2018-07-25T09:45:41.260Z,641.25
2018-07-25T09:46:41.295Z,658.13
2018-07-25T09:47:41.136Z,663.75
2018-07-25T09:48:41.071Z,669.38
2018-07-25T09:49:41.030Z,686.25
2018-07-25T09:50:40.967Z,708.75
2018-07-25T09:51:40.914Z,731.25
2018-07-25T09:52:40.891Z,759.38
2018-07-25T09:53:40.802Z,787.50
2018-07-25T09:54:40.755Z,815.63
2018-07-25T09:55:40.734Z,849.38
2018-07-25T09:56:40.648Z,883.13
2018-07-25T09:57:40.589Z,905.63
2018-07-25T09:58:40.560Z,945.00
2018-07-25T09:59:40.486Z,984.38
2018-07-25T10:00:40.447Z,1051.88
2018-07-25T10:01:40.387Z,1119.38
2018-07-25T10:02:40.331Z,1186.88
2018-07-25T10:03:40.268Z,1282.50
2018-07-25T10:04:40.229Z,1395.00
2018-07-25T10:05:40.157Z,1586.25
2018-07-25T10:06:40.103Z,1732.50
2018-07-25T10:07:40.109Z,1929.38
2018-07-25T10:08:40.001Z,2131.88
2018-07-25T10:09:39.953Z,2351.25
2018-07-25T10:10:39.915Z,2486.25
2018-07-25T10:11:39.852Z,2435.63
2018-07-25T10:12:39.793Z,2390.63
2018-07-25T10:13:39.751Z,2520.00
2018-07-25T10:14:39.686Z,2683.13
2018-07-25T10:15:39.636Z,2598.75
2018-07-25T10:16:39.584Z,2632.50
2018-07-25T10:17:39.525Z,2548.13
2018-07-25T10:18:39.483Z,2463.75
2018-07-25T10:19:39.439Z,2475.00
2018-07-25T10:20:39.379Z,2390.63
2018-07-25T10:21:39.332Z,2272.50
2018-07-25T10:22:39.272Z,2210.63
2018-07-25T10:23:39.218Z,1884.38
2018-07-25T10:24:39.159Z,1310.63
2018-07-25T10:25:39.118Z,793.13
2018-07-25T10:26:39.105Z,1845.00
2018-07-25T10:27:39.032Z,1884.38
2018-07-25T10:28:38.993Z,1805.63
2018-07-25T10:29:38.911Z,1710.00
2018-07-25T10:30:38.854Z,1642.50
2018-07-25T10:31:38.799Z,1113.75
2018-07-25T10:32:38.764Z,669.38
2018-07-25T10:33:38.712Z,371.25
2018-07-25T10:34:38.642Z,331.88
2018-07-25T10:35:38.614Z,416.25
2018-07-25T10:36:38.541Z,883.13
2018-07-25T10:37:38.490Z,916.88
2018-07-25T10:38:38.432Z,1001.25
2018-07-25T10:39:38.387Z,1226.25
2018-07-25T10:40:38.328Z,1237.50
2018-07-25T10:41:38.274Z,1063.13
2018-07-25T10:42:38.228Z,523.13
2018-07-25T10:43:38.182Z,331.88
2018-07-25T10:44:38.109Z,292.50
2018-07-25T10:45:38.069Z,281.25
2018-07-25T10:46:37.999Z,275.63
2018-07-25T10:47:37.946Z,275.63
2018-07-25T10:48:37.899Z,270.00
2018-07-25T10:49:37.841Z,270.00
2018-07-25T10:50:37.780Z,275.63
2018-07-25T10:51:37.735Z,275.63
2018-07-25T10:52:37.675Z,281.25
2018-07-25T10:53:37.609Z,281.25
2018-07-25T10:54:37.555Z,281.25
2018-07-25T10:55:37.505Z,281.25
2018-07-25T10:56:37.440Z,281.25
2018-07-25T10:57:37.386Z,281.25
2018-07-25T10:58:37.338Z,303.75
2018-07-25T10:59:37.273Z,691.88
2018-07-25T11:00:37.213Z,826.88
2018-07-25T11:01:37.155Z,731.25
2018-07-25T11:02:37.103Z,478.13
2018-07-25T11:03:37.038Z,585.00
2018-07-25T11:04:36.977Z,579.38
2018-07-25T11:05:36.943Z,360.00
2018-07-25T11:06:36.863Z,556.88
2018-07-25T11:07:36.809Z,517.50
2018-07-25T11:08:36.755Z,438.75
2018-07-25T11:09:36.710Z,410.63
2018-07-25T11:10:36.634Z,343.13
2018-07-25T11:11:36.579Z,393.75
2018-07-25T11:12:36.516Z,326.25
2018-07-25T11:13:36.456Z,281.25
2018-07-25T11:14:36.422Z,286.88
2018-07-25T11:15:36.353Z,281.25
2018-07-25T11:16:36.295Z,286.88
2018-07-25T11:17:36.225Z,275.63
2018-07-25T11:18:36.160Z,320.63
2018-07-25T11:19:36.101Z,315.00
2018-07-25T11:20:36.048Z,382.50
2018-07-25T11:21:35.991Z,421.88
2018-07-25T11:22:35.917Z,731.25
2018-07-25T11:23:35.866Z,984.38
2018-07-25T11:24:35.806Z,500.63
2018-07-25T11:25:35.744Z,410.63
2018-07-25T11:26:35.689Z,343.13
2018-07-25T11:27:35.630Z,433.13
2018-07-25T11:28:35.568Z,433.13
2018-07-25T11:29:35.510Z,320.63
2018-07-25T11:30:35.465Z,309.38
2018-07-25T11:31:35.393Z,303.75
2018-07-25T11:32:35.435Z,292.50
2018-07-25T11:33:35.276Z,286.88
2018-07-25T11:34:35.218Z,298.13
2018-07-25T11:35:35.154Z,292.50
2018-07-25T11:36:35.089Z,286.88
2018-07-25T11:37:35.038Z,286.88
2018-07-25T11:38:34.977Z,320.63
2018-07-25T11:39:34.919Z,303.75
2018-07-25T11:40:34.861Z,303.75
2018-07-25T11:41:34.817Z,326.25
2018-07-25T11:42:34.755Z,286.88
2018-07-25T11:43:34.691Z,286.88
2018-07-25T11:44:34.625Z,292.50
2018-07-25T11:45:34.560Z,315.00
2018-07-25T11:46:34.498Z,309.38
2018-07-25T11:47:34.442Z,320.63
2018-07-25T11:48:34.390Z,298.13
2018-07-25T11:49:34.322Z,303.75
2018-07-25T11:50:34.261Z,303.75
2018-07-25T11:51:34.206Z,309.38
2018-07-25T11:52:34.143Z,315.00
2018-07-25T11:53:34.078Z,320.63
2018-07-25T11:54:34.022Z,343.13
2018-07-25T11:55:33.980Z,337.50
2018-07-25T11:56:33.897Z,348.75
2018-07-25T11:57:33.836Z,376.88
2018-07-25T11:58:33.777Z,337.50
2018-07-25T11:59:33.730Z,326.25
2018-07-25T12:00:33.656Z,337.50
2018-07-25T12:01:33.664Z,343.13
2018-07-25T12:02:33.540Z,360.00
2018-07-25T12:03:33.475Z,348.75
2018-07-25T12:04:33.415Z,371.25
2018-07-25T12:05:33.360Z,399.38
2018-07-25T12:06:33.359Z,1215.00
2018-07-25T12:07:33.236Z,4117.50
2018-07-25T12:08:33.175Z,2986.88
2018-07-25T12:09:33.119Z,1170.00
2018-07-25T12:10:33.058Z,646.88
2018-07-25T12:11:33.000Z,472.50
2018-07-25T12:12:32.939Z,787.50
2018-07-25T12:13:32.883Z,686.25
2018-07-25T12:14:32.829Z,511.88
2018-07-25T12:15:32.761Z,466.88
2018-07-25T12:16:33.355Z,388.13
2018-07-25T12:17:32.650Z,376.88
2018-07-25T12:18:32.580Z,376.88
2018-07-25T12:19:32.523Z,534.38
2018-07-25T12:20:32.539Z,523.13
2018-07-25T12:21:32.404Z,551.25
2018-07-25T12:22:32.344Z,455.63
2018-07-25T12:23:32.307Z,489.38
2018-07-25T12:24:32.234Z,421.88
2018-07-25T12:25:32.171Z,421.88
2018-07-25T12:26:32.178Z,393.75
2018-07-25T12:27:32.050Z,399.38
2018-07-25T12:28:31.992Z,405.00
2018-07-25T12:29:31.935Z,405.00
2018-07-25T12:30:31.872Z,405.00
2018-07-25T12:31:31.821Z,405.00
2018-07-25T12:32:31.757Z,405.00
2018-07-25T12:33:31.693Z,405.00
2018-07-25T12:34:31.636Z,405.00
2018-07-25T12:35:31.577Z,405.00
2018-07-25T12:36:31.520Z,416.25
2018-07-25T12:37:31.468Z,421.88
2018-07-25T12:38:31.429Z,489.38
2018-07-25T12:39:31.353Z,450.00
2018-07-25T12:40:31.277Z,444.38
2018-07-25T12:41:31.222Z,433.13
2018-07-25T12:42:31.157Z,455.63
2018-07-25T12:43:31.108Z,478.13
2018-07-25T12:44:31.043Z,489.38
2018-07-25T12:45:30.984Z,495.00
2018-07-25T12:46:30.920Z,489.38